createdAt,value
2017-08-31T00:01:01.893Z,19.70
2017-08-31T00:03:29.444Z,19.70
2017-08-31T00:05:56.988Z,19.60
2017-08-31T00:08:24.549Z,19.60
2017-08-31T00:10:52.093Z,19.50
2017-08-31T00:13:19.648Z,19.50
2017-08-31T00:15:47.192Z,19.50
2017-08-31T00:18:14.729Z,19.50
2017-08-31T00:20:42.285Z,19.50
2017-08-31T00:23:09.819Z,19.40
2017-08-31T00:25:37.431Z,19.30
2017-08-31T00:28:05.005Z,19.30
2017-08-31T00:30:32.563Z,19.40
2017-08-31T00:33:00.110Z,19.40
2017-08-31T00:35:27.646Z,19.30
2017-08-31T00:37:55.231Z,19.30
2017-08-31T00:40:22.769Z,19.40
2017-08-31T00:42:50.368Z,19.30
2017-08-31T00:45:17.930Z,19.30
2017-08-31T00:47:45.574Z,19.30
2017-08-31T00:50:13.130Z,19.30
2017-08-31T00:52:40.686Z,19.30
2017-08-31T00:55:08.252Z,19.30
2017-08-31T00:57:35.780Z,19.20
2017-08-31T01:00:03.328Z,19.20
2017-08-31T01:02:30.886Z,19.20
2017-08-31T01:04:58.436Z,19.20
2017-08-31T01:07:26.021Z,19.10
2017-08-31T01:09:53.571Z,19.10
2017-08-31T01:12:21.139Z,19.10
2017-08-31T01:14:48.665Z,19.10
2017-08-31T01:17:16.218Z,19.20
2017-08-31T01:19:43.769Z,19.20
2017-08-31T01:22:11.297Z,19.20
2017-08-31T01:24:38.856Z,19.20
2017-08-31T01:27:06.404Z,19.20
2017-08-31T01:29:33.933Z,19.20
2017-08-31T01:32:01.489Z,19.30
2017-08-31T01:34:29.060Z,19.30
2017-08-31T01:36:56.625Z,19.30
2017-08-31T01:39:24.161Z,19.30
2017-08-31T01:41:51.724Z,19.40
2017-08-31T01:44:19.273Z,19.40
2017-08-31T01:46:46.822Z,19.40
2017-08-31T01:49:14.387Z,19.40
2017-08-31T01:51:41.952Z,19.40
2017-08-31T01:54:09.489Z,19.40
2017-08-31T01:56:37.078Z,19.30
2017-08-31T01:59:04.604Z,19.30
2017-08-31T02:01:32.137Z,19.30
2017-08-31T02:03:59.689Z,19.20
2017-08-31T02:06:27.230Z,19.30
2017-08-31T02:08:54.793Z,19.30
2017-08-31T02:11:22.313Z,19.20
2017-08-31T02:13:49.872Z,19.30
2017-08-31T02:16:17.388Z,19.20
2017-08-31T02:18:44.928Z,19.30
2017-08-31T02:21:12.478Z,19.30
2017-08-31T02:23:40.030Z,19.30
2017-08-31T02:26:07.566Z,19.30
2017-08-31T02:28:35.143Z,19.40
2017-08-31T02:31:03.280Z,19.40
2017-08-31T02:33:30.818Z,19.30
2017-08-31T02:35:58.381Z,19.20
2017-08-31T02:38:25.929Z,19.20
2017-08-31T02:40:53.488Z,19.20
2017-08-31T02:43:21.093Z,19.20
2017-08-31T02:45:48.653Z,19.10
2017-08-31T02:48:16.215Z,19.20
2017-08-31T02:50:43.769Z,19.30
2017-08-31T02:53:11.334Z,19.30
2017-08-31T02:55:38.879Z,19.30
2017-08-31T02:58:06.449Z,19.40
2017-08-31T03:00:34.015Z,19.40
2017-08-31T03:03:01.579Z,19.30
2017-08-31T03:05:29.110Z,19.30
2017-08-31T03:07:56.959Z,19.50
2017-08-31T03:10:24.497Z,19.50
2017-08-31T03:12:52.123Z,19.50
2017-08-31T03:15:19.656Z,19.40
2017-08-31T03:17:47.204Z,19.40
2017-08-31T03:20:14.736Z,19.40
2017-08-31T03:22:42.296Z,19.40
2017-08-31T03:25:09.849Z,19.30
2017-08-31T03:27:37.374Z,19.30
2017-08-31T03:30:04.926Z,19.20
2017-08-31T03:32:32.467Z,19.20
2017-08-31T03:35:00.016Z,19.10
2017-08-31T03:37:27.545Z,19.10
2017-08-31T03:39:55.093Z,19.00
2017-08-31T03:42:22.631Z,18.90
2017-08-31T03:44:50.171Z,18.90
2017-08-31T03:47:17.719Z,18.90
2017-08-31T03:49:45.245Z,18.90
2017-08-31T03:52:12.833Z,18.90
2017-08-31T03:54:40.363Z,18.90
2017-08-31T03:57:07.914Z,18.90
2017-08-31T03:59:35.472Z,19.00
2017-08-31T04:02:03.017Z,18.90
2017-08-31T04:04:30.568Z,19.00
2017-08-31T04:06:58.110Z,19.00
2017-08-31T04:09:25.652Z,19.00
2017-08-31T04:11:53.190Z,18.90
2017-08-31T04:14:20.814Z,19.00
2017-08-31T04:16:48.402Z,18.90
2017-08-31T04:19:15.932Z,18.90
2017-08-31T04:21:43.492Z,18.90
2017-08-31T04:24:11.021Z,19.00
2017-08-31T04:26:38.579Z,19.00
2017-08-31T04:29:06.171Z,19.10
2017-08-31T04:31:33.731Z,19.20
2017-08-31T04:34:01.265Z,19.30
2017-08-31T04:36:28.800Z,19.30
2017-08-31T04:38:56.367Z,19.30
2017-08-31T04:41:23.910Z,19.20
2017-08-31T04:43:51.457Z,19.30
2017-08-31T04:46:19.000Z,19.30
2017-08-31T04:48:46.552Z,19.20
2017-08-31T04:51:14.107Z,19.00
2017-08-31T04:53:42.354Z,19.00
2017-08-31T04:56:10.680Z,19.00
2017-08-31T04:58:38.210Z,19.00
2017-08-31T05:01:05.773Z,19.00
2017-08-31T05:03:33.311Z,18.90
2017-08-31T05:06:00.870Z,19.00
2017-08-31T05:08:28.393Z,19.00
2017-08-31T05:10:55.952Z,19.20
2017-08-31T05:13:23.506Z,19.30
2017-08-31T05:15:51.037Z,19.40
2017-08-31T05:18:18.581Z,19.40
2017-08-31T05:20:46.113Z,19.40
2017-08-31T05:23:13.664Z,19.30
2017-08-31T05:25:41.202Z,19.20
2017-08-31T05:28:08.742Z,19.20
2017-08-31T05:30:36.286Z,19.20
2017-08-31T05:33:03.814Z,19.10
2017-08-31T05:35:31.374Z,19.10
2017-08-31T05:37:58.909Z,19.20
2017-08-31T05:40:26.460Z,19.10
2017-08-31T05:42:54.025Z,18.90
2017-08-31T05:45:21.592Z,18.70
2017-08-31T05:47:49.117Z,18.60
2017-08-31T05:50:16.661Z,18.40
2017-08-31T05:52:44.193Z,18.00
2017-08-31T05:55:11.750Z,17.80
2017-08-31T05:57:39.305Z,17.80
2017-08-31T06:00:06.864Z,17.70
2017-08-31T06:02:34.489Z,17.70
2017-08-31T06:05:02.041Z,17.70
2017-08-31T06:10:02.474Z,17.70
2017-08-31T06:12:30.004Z,17.80
2017-08-31T06:14:57.491Z,17.90
2017-08-31T06:17:24.978Z,17.90
2017-08-31T06:19:52.446Z,17.90
2017-08-31T06:22:19.936Z,17.90
2017-08-31T06:24:47.417Z,18.00
2017-08-31T06:27:14.913Z,17.90
2017-08-31T06:29:42.408Z,17.90
2017-08-31T06:32:09.891Z,17.90
2017-08-31T06:34:37.388Z,17.90
2017-08-31T06:37:04.856Z,18.00
2017-08-31T06:39:32.353Z,18.10
2017-08-31T06:41:59.836Z,18.10
2017-08-31T06:44:27.349Z,18.20
2017-08-31T06:46:54.845Z,18.50
2017-08-31T06:49:22.316Z,18.70
2017-08-31T06:51:49.826Z,18.90
2017-08-31T06:54:17.293Z,18.80
2017-08-31T06:56:44.793Z,18.90
2017-08-31T06:59:12.277Z,18.90
2017-08-31T07:01:39.760Z,19.20
2017-08-31T07:04:07.252Z,19.10
2017-08-31T07:06:34.728Z,19.30
2017-08-31T07:09:02.233Z,19.40
2017-08-31T07:11:29.708Z,19.30
2017-08-31T07:13:57.200Z,19.40
2017-08-31T07:16:24.695Z,19.30
2017-08-31T07:18:52.185Z,19.40
2017-08-31T07:21:19.652Z,19.30
2017-08-31T07:23:47.149Z,19.30
2017-08-31T07:26:14.633Z,19.20
2017-08-31T07:28:42.105Z,19.40
2017-08-31T07:31:09.588Z,19.50
2017-08-31T07:33:37.065Z,19.60
2017-08-31T07:36:04.608Z,19.90
2017-08-31T07:38:32.092Z,20.00
2017-08-31T07:40:59.552Z,20.20
2017-08-31T07:43:27.048Z,20.00
2017-08-31T07:45:54.537Z,20.00
2017-08-31T07:48:22.029Z,20.30
2017-08-31T07:50:49.501Z,20.80
2017-08-31T07:53:17.152Z,20.80
2017-08-31T07:55:44.657Z,20.60
2017-08-31T07:58:12.134Z,20.20
2017-08-31T08:00:39.644Z,20.00
2017-08-31T08:03:07.108Z,19.90
2017-08-31T08:05:34.612Z,19.70
2017-08-31T08:08:02.089Z,19.60
2017-08-31T08:10:29.588Z,19.60
2017-08-31T08:12:57.076Z,19.70
2017-08-31T08:15:24.549Z,19.70
2017-08-31T08:17:52.051Z,19.70
2017-08-31T08:20:19.539Z,19.80
2017-08-31T08:22:47.006Z,19.80
2017-08-31T08:25:14.496Z,19.50
2017-08-31T08:27:41.978Z,19.40
2017-08-31T08:30:09.513Z,19.30
2017-08-31T08:32:36.985Z,19.10
2017-08-31T08:35:04.489Z,19.00
2017-08-31T08:37:31.953Z,19.00
2017-08-31T08:39:59.452Z,19.00
2017-08-31T08:42:26.924Z,19.00
2017-08-31T08:44:54.400Z,19.30
2017-08-31T08:47:21.913Z,19.20
2017-08-31T08:49:49.421Z,19.20
2017-08-31T08:52:16.921Z,19.20
2017-08-31T08:54:44.398Z,19.30
2017-08-31T08:57:11.897Z,19.60
2017-08-31T08:59:39.389Z,20.10
2017-08-31T09:02:06.888Z,20.10
2017-08-31T09:04:34.356Z,19.90
2017-08-31T09:07:01.865Z,19.90
2017-08-31T09:09:29.332Z,19.80
2017-08-31T09:11:56.808Z,19.80
2017-08-31T09:14:24.293Z,19.70
2017-08-31T09:16:51.767Z,19.60
2017-08-31T09:19:19.280Z,19.60
2017-08-31T09:21:46.787Z,19.40
2017-08-31T09:24:14.287Z,19.10
2017-08-31T09:26:41.760Z,18.90
2017-08-31T09:29:09.237Z,18.90
2017-08-31T09:31:36.726Z,18.80
2017-08-31T09:34:04.198Z,18.70
2017-08-31T09:36:31.684Z,18.60
2017-08-31T09:38:59.167Z,18.50
2017-08-31T09:41:26.643Z,18.40
2017-08-31T09:43:54.132Z,18.50
2017-08-31T09:46:21.715Z,18.60
2017-08-31T09:48:49.242Z,18.70
2017-08-31T09:51:16.712Z,18.80
2017-08-31T09:53:44.213Z,18.90
2017-08-31T09:56:11.705Z,18.90
2017-08-31T09:58:39.190Z,18.80
2017-08-31T10:01:06.677Z,18.40
2017-08-31T10:03:34.160Z,18.10
2017-08-31T10:06:01.657Z,18.00
2017-08-31T10:08:29.157Z,17.80
2017-08-31T10:10:56.645Z,17.70
2017-08-31T10:13:24.130Z,17.70
2017-08-31T10:15:51.628Z,17.50
2017-08-31T10:18:19.112Z,17.30
2017-08-31T10:20:46.584Z,17.30
2017-08-31T10:23:15.118Z,17.20
2017-08-31T10:25:42.592Z,17.10
2017-08-31T10:28:10.098Z,17.00
2017-08-31T10:30:37.576Z,17.00
2017-08-31T10:33:05.068Z,17.00
2017-08-31T10:35:32.544Z,17.00
2017-08-31T10:38:00.037Z,17.20
2017-08-31T10:40:27.534Z,17.20
2017-08-31T10:42:55.013Z,17.00
2017-08-31T10:45:22.517Z,17.00
2017-08-31T10:47:49.981Z,16.90
2017-08-31T10:50:17.472Z,17.10
2017-08-31T10:52:44.966Z,17.20
2017-08-31T10:55:12.440Z,17.40
2017-08-31T10:57:39.947Z,17.50
2017-08-31T11:00:07.417Z,17.70
2017-08-31T11:02:34.907Z,18.00
2017-08-31T11:05:02.380Z,18.00
2017-08-31T11:07:29.865Z,18.00
2017-08-31T11:09:57.368Z,18.00
2017-08-31T11:12:24.851Z,18.00
2017-08-31T11:14:52.330Z,18.00
2017-08-31T11:17:19.832Z,18.10
2017-08-31T11:19:47.335Z,17.90
2017-08-31T11:22:14.811Z,18.00
2017-08-31T11:24:42.300Z,18.00
2017-08-31T11:27:09.836Z,18.10
2017-08-31T11:29:37.378Z,18.10
2017-08-31T11:32:04.809Z,18.20
2017-08-31T11:34:32.332Z,18.10
2017-08-31T11:36:59.815Z,18.10
2017-08-31T11:39:27.219Z,18.20
2017-08-31T11:41:54.708Z,18.20
2017-08-31T11:44:22.187Z,18.20
2017-08-31T11:46:49.693Z,18.10
2017-08-31T11:49:17.175Z,18.00
2017-08-31T11:51:44.645Z,18.40
2017-08-31T11:54:12.131Z,18.60
2017-08-31T11:56:39.604Z,18.60
2017-08-31T11:59:07.110Z,18.30
2017-08-31T12:01:34.645Z,18.00
2017-08-31T12:04:02.167Z,17.70
2017-08-31T12:06:29.648Z,17.50
2017-08-31T12:08:57.152Z,17.20
2017-08-31T12:11:24.625Z,17.30
2017-08-31T12:13:52.108Z,17.30
2017-08-31T12:16:19.597Z,17.40
2017-08-31T12:18:47.074Z,17.30
2017-08-31T12:21:14.612Z,17.30
2017-08-31T12:23:42.089Z,17.30
2017-08-31T12:26:09.590Z,17.40
2017-08-31T12:28:37.085Z,17.50
2017-08-31T12:31:04.577Z,17.50
2017-08-31T12:33:32.083Z,17.30
2017-08-31T12:35:59.571Z,17.30
2017-08-31T12:38:27.060Z,17.20
2017-08-31T12:40:54.551Z,17.10
2017-08-31T12:43:22.061Z,17.00
2017-08-31T12:45:49.584Z,17.00
2017-08-31T12:48:17.065Z,17.00
2017-08-31T12:50:44.592Z,17.10
2017-08-31T12:53:12.060Z,17.00
2017-08-31T12:55:39.608Z,16.90
2017-08-31T12:58:07.077Z,17.00
2017-08-31T13:00:34.569Z,16.90
2017-08-31T13:03:02.037Z,16.60
2017-08-31T13:05:29.512Z,16.60
2017-08-31T13:07:57.011Z,16.50
2017-08-31T13:10:24.484Z,16.40
2017-08-31T13:12:51.985Z,16.40
2017-08-31T13:15:20.228Z,16.30
2017-08-31T13:17:47.752Z,16.30
2017-08-31T13:20:15.239Z,16.20
2017-08-31T13:22:42.728Z,16.30
2017-08-31T13:25:10.225Z,16.20
2017-08-31T13:27:37.713Z,16.20
2017-08-31T13:30:05.220Z,16.10
2017-08-31T13:32:32.688Z,16.00
2017-08-31T13:35:00.217Z,15.90
2017-08-31T13:37:27.708Z,15.90
2017-08-31T13:39:55.220Z,16.00
2017-08-31T13:42:22.704Z,16.00
2017-08-31T13:44:50.270Z,16.10
2017-08-31T13:47:17.737Z,16.00
2017-08-31T13:49:45.269Z,16.10
2017-08-31T13:52:12.737Z,16.00
2017-08-31T13:54:40.232Z,16.00
2017-08-31T13:57:07.708Z,16.00
2017-08-31T13:59:35.248Z,16.00
2017-08-31T14:02:02.733Z,15.70
2017-08-31T14:04:30.229Z,15.60
2017-08-31T14:06:57.737Z,15.60
2017-08-31T14:09:25.233Z,15.70
2017-08-31T14:11:52.738Z,15.80
2017-08-31T14:14:20.220Z,15.70
2017-08-31T14:16:47.693Z,15.70
2017-08-31T14:19:15.226Z,15.70
2017-08-31T14:21:42.707Z,15.80
2017-08-31T14:24:10.253Z,15.90
2017-08-31T14:26:37.738Z,15.90
2017-08-31T14:29:05.284Z,15.60
2017-08-31T14:31:32.763Z,15.70
2017-08-31T14:34:00.249Z,15.90
2017-08-31T14:36:28.283Z,15.90
2017-08-31T14:38:55.780Z,15.90
2017-08-31T14:41:23.281Z,16.00
2017-08-31T14:43:50.760Z,15.80
2017-08-31T14:46:18.237Z,15.90
2017-08-31T14:48:45.728Z,15.70
2017-08-31T14:51:13.196Z,15.90
2017-08-31T14:53:40.665Z,15.80
2017-08-31T14:56:08.164Z,15.70
2017-08-31T14:58:35.674Z,15.60
2017-08-31T15:01:03.156Z,15.50
2017-08-31T15:03:30.633Z,15.50
2017-08-31T15:05:58.129Z,15.50
2017-08-31T15:08:25.603Z,15.30
2017-08-31T15:10:53.105Z,15.20
2017-08-31T15:13:20.574Z,15.10
2017-08-31T15:15:48.065Z,15.20
2017-08-31T15:18:15.539Z,15.10
2017-08-31T15:20:43.020Z,15.00
2017-08-31T15:23:10.484Z,15.10
2017-08-31T15:25:37.989Z,15.10
2017-08-31T15:28:05.460Z,15.10
2017-08-31T15:30:32.965Z,15.10
2017-08-31T15:33:00.446Z,15.00
2017-08-31T15:35:27.917Z,14.90
2017-08-31T15:37:55.404Z,14.90
2017-08-31T15:40:22.916Z,15.10
2017-08-31T15:42:50.449Z,15.00
2017-08-31T15:45:17.929Z,14.90
2017-08-31T15:47:45.420Z,15.10
2017-08-31T15:50:12.924Z,14.90
2017-08-31T15:52:40.399Z,14.80
2017-08-31T15:55:07.905Z,14.80
2017-08-31T15:57:35.380Z,14.90
2017-08-31T16:00:02.868Z,14.90
2017-08-31T16:02:30.373Z,14.90
2017-08-31T16:04:58.833Z,14.70
2017-08-31T16:07:26.333Z,14.70
2017-08-31T16:09:53.818Z,14.50
2017-08-31T16:12:21.326Z,14.60
2017-08-31T16:14:48.820Z,14.70
2017-08-31T16:17:16.298Z,14.70
2017-08-31T16:19:43.792Z,14.70
2017-08-31T16:22:11.289Z,14.70
2017-08-31T16:24:38.762Z,14.90
2017-08-31T16:27:06.245Z,15.00
2017-08-31T16:29:33.736Z,15.10
2017-08-31T16:32:01.206Z,15.20
2017-08-31T16:34:28.696Z,15.10
2017-08-31T16:36:56.477Z,15.00
2017-08-31T16:39:24.730Z,14.90
2017-08-31T16:41:52.201Z,14.90
2017-08-31T16:44:19.697Z,14.80
2017-08-31T16:46:47.188Z,14.90
2017-08-31T16:49:14.660Z,14.90
2017-08-31T16:51:42.189Z,15.00
2017-08-31T16:54:09.663Z,15.10
2017-08-31T16:56:37.161Z,15.20
2017-08-31T16:59:04.664Z,15.20
2017-08-31T17:01:32.141Z,15.20
2017-08-31T17:03:59.654Z,15.10
2017-08-31T17:06:27.136Z,14.90
2017-08-31T17:08:54.662Z,14.80
2017-08-31T17:11:22.140Z,14.80
2017-08-31T17:13:49.640Z,14.80
2017-08-31T17:16:17.128Z,14.90
2017-08-31T17:18:44.621Z,14.90
2017-08-31T17:21:12.112Z,14.90
2017-08-31T17:23:39.604Z,14.80
2017-08-31T17:26:07.092Z,14.70
2017-08-31T17:28:34.593Z,14.80
2017-08-31T17:31:02.207Z,14.70
2017-08-31T17:33:29.680Z,14.80
2017-08-31T17:35:57.185Z,14.60
2017-08-31T17:38:24.660Z,14.60
2017-08-31T17:40:52.179Z,14.70
2017-08-31T17:43:19.658Z,14.90
2017-08-31T17:45:47.159Z,14.80
2017-08-31T17:48:14.630Z,14.80
2017-08-31T17:50:42.145Z,14.70
2017-08-31T17:53:09.625Z,14.60
2017-08-31T17:55:37.117Z,14.60
2017-08-31T17:58:04.667Z,14.50
2017-08-31T18:00:32.160Z,14.50
2017-08-31T18:02:59.663Z,14.40
2017-08-31T18:05:27.148Z,14.40
2017-08-31T18:07:54.639Z,14.50
2017-08-31T18:10:22.124Z,14.50
2017-08-31T18:12:49.633Z,14.50
2017-08-31T18:15:17.146Z,14.60
2017-08-31T18:17:44.640Z,14.60
2017-08-31T18:20:12.132Z,14.50
2017-08-31T18:22:39.636Z,14.60
2017-08-31T18:25:07.116Z,14.70
2017-08-31T18:27:34.614Z,14.70
2017-08-31T18:30:02.121Z,14.70
2017-08-31T18:32:29.672Z,14.70
2017-08-31T18:34:57.200Z,14.60
2017-08-31T18:37:24.700Z,14.70
2017-08-31T18:39:52.229Z,14.70
2017-08-31T18:42:19.731Z,14.70
2017-08-31T18:44:47.229Z,14.70
2017-08-31T18:47:14.746Z,14.60
2017-08-31T18:49:42.226Z,14.50
2017-08-31T18:52:09.746Z,14.40
2017-08-31T18:54:37.225Z,14.40
2017-08-31T18:57:04.937Z,14.50
2017-08-31T18:59:33.175Z,14.60
2017-08-31T19:02:00.668Z,14.60
2017-08-31T19:04:28.198Z,14.50
2017-08-31T19:06:55.667Z,14.70
2017-08-31T19:09:23.180Z,14.70
2017-08-31T19:11:50.785Z,14.70
2017-08-31T19:14:18.301Z,14.60
2017-08-31T19:16:45.786Z,14.50
2017-08-31T19:19:13.287Z,14.40
2017-08-31T19:21:40.762Z,14.30
2017-08-31T19:24:08.253Z,14.30
2017-08-31T19:26:35.755Z,14.50
2017-08-31T19:29:03.238Z,14.50
2017-08-31T19:31:30.748Z,14.50
2017-08-31T19:33:58.224Z,14.60
2017-08-31T19:36:25.746Z,14.60
2017-08-31T19:38:53.229Z,14.50
2017-08-31T19:41:20.722Z,14.40
2017-08-31T19:43:48.229Z,14.30
2017-08-31T19:46:15.725Z,14.30
2017-08-31T19:48:43.219Z,14.30
2017-08-31T19:51:10.701Z,14.20
2017-08-31T19:53:38.193Z,14.10
2017-08-31T19:56:05.687Z,14.30
2017-08-31T19:58:33.205Z,14.40
2017-08-31T20:01:00.777Z,14.40
2017-08-31T20:03:28.261Z,14.30
2017-08-31T20:05:55.752Z,14.20
2017-08-31T20:08:23.237Z,14.20
2017-08-31T20:10:50.760Z,14.10
2017-08-31T20:13:18.247Z,14.10
2017-08-31T20:15:45.775Z,14.10
2017-08-31T20:18:13.293Z,14.20
2017-08-31T20:20:40.787Z,14.10
2017-08-31T20:23:08.289Z,14.10
2017-08-31T20:25:35.812Z,14.00
2017-08-31T20:28:03.279Z,13.90
2017-08-31T20:30:30.773Z,14.00
2017-08-31T20:32:58.276Z,14.00
2017-08-31T20:35:25.765Z,14.00
2017-08-31T20:37:53.240Z,14.20
2017-08-31T20:40:20.745Z,14.20
2017-08-31T20:42:48.227Z,14.20
2017-08-31T20:45:15.744Z,14.20
2017-08-31T20:47:43.216Z,14.30
2017-08-31T20:50:10.732Z,14.20
2017-08-31T20:52:38.220Z,14.20
2017-08-31T20:55:05.718Z,14.20
2017-08-31T20:57:33.189Z,14.00
2017-08-31T21:00:00.684Z,14.20
2017-08-31T21:02:28.154Z,14.20
2017-08-31T21:04:55.629Z,14.20
2017-08-31T21:07:23.121Z,14.10
2017-08-31T21:09:50.645Z,14.00
2017-08-31T21:12:18.134Z,14.00
2017-08-31T21:14:45.613Z,14.00
2017-08-31T21:17:13.104Z,14.00
2017-08-31T21:19:40.573Z,13.90
2017-08-31T21:22:08.048Z,13.90
2017-08-31T21:24:35.548Z,13.90
2017-08-31T21:27:03.018Z,14.00
2017-08-31T21:29:30.520Z,14.10
2017-08-31T21:31:58.006Z,14.10
2017-08-31T21:34:25.508Z,14.20
2017-08-31T21:36:52.981Z,14.20
2017-08-31T21:39:20.495Z,14.20
2017-08-31T21:41:47.964Z,14.20
2017-08-31T21:44:15.552Z,14.10
2017-08-31T21:46:43.048Z,14.00
2017-08-31T21:49:10.537Z,13.90
2017-08-31T21:51:38.033Z,13.90
2017-08-31T21:54:05.520Z,13.80
2017-08-31T21:56:33.017Z,13.70
2017-08-31T21:59:00.614Z,13.80
2017-08-31T22:01:28.104Z,13.90
2017-08-31T22:03:55.584Z,13.90
2017-08-31T22:06:23.086Z,13.80
2017-08-31T22:08:50.584Z,13.70
2017-08-31T22:11:18.077Z,13.60
2017-08-31T22:13:45.578Z,13.70
2017-08-31T22:16:13.053Z,13.80
2017-08-31T22:18:40.577Z,13.80
2017-08-31T22:21:08.051Z,13.90
2017-08-31T22:23:35.526Z,13.90
2017-08-31T22:26:03.027Z,13.80
2017-08-31T22:28:30.610Z,13.90
2017-08-31T22:30:58.101Z,13.80
2017-08-31T22:33:25.600Z,14.00
2017-08-31T22:35:53.086Z,13.90
2017-08-31T22:38:20.643Z,14.00
2017-08-31T22:40:48.150Z,13.90
2017-08-31T22:43:16.228Z,13.80
2017-08-31T22:45:43.720Z,13.80
2017-08-31T22:48:11.225Z,13.80
2017-08-31T22:50:38.721Z,13.80
2017-08-31T22:53:06.202Z,13.80
2017-08-31T22:55:33.699Z,13.70
2017-08-31T22:58:13.755Z,13.70
2017-08-31T23:00:41.261Z,13.70
2017-08-31T23:03:08.773Z,13.80
2017-08-31T23:05:36.265Z,13.80
2017-08-31T23:08:03.766Z,13.80
2017-08-31T23:10:31.252Z,13.80
2017-08-31T23:12:58.733Z,13.80
2017-08-31T23:15:26.232Z,13.80
2017-08-31T23:17:53.709Z,13.60
2017-08-31T23:20:21.198Z,13.50
2017-08-31T23:22:48.668Z,13.40
2017-08-31T23:25:16.189Z,13.40
2017-08-31T23:27:43.678Z,13.40
2017-08-31T23:30:11.152Z,13.40
2017-08-31T23:32:38.640Z,13.50
2017-08-31T23:35:06.132Z,13.50
2017-08-31T23:37:33.616Z,13.40
2017-08-31T23:40:01.100Z,13.40
2017-08-31T23:42:28.597Z,13.50
2017-08-31T23:44:56.107Z,13.60
2017-08-31T23:47:23.596Z,13.60
2017-08-31T23:49:51.080Z,13.50
2017-08-31T23:52:18.561Z,13.60
2017-08-31T23:54:46.841Z,13.50
2017-08-31T23:57:14.327Z,13.40
2017-08-31T23:59:41.829Z,13.50
